Antalya, Turkey

11:12 AM EEST on July 25, 2016 (GMT +0300)
Antalya | | Change Station

Elev 174 ft 36.90 °N, 30.80 °E | Updated 22 minutes ago

Clear
Clear
97 °F
Feels Like 97 °F
N
9
Wind Variable Wind from North

Today
High -- | Low -- °F
--% Chance of Precip.
Yesterday
High -- | Low -- °F
Precip. -- in
Pressure 29.65 in
Visibility -9999.0 miles
Clouds
Dew Point 48 °F
Humidity 19%
Rainfall 0.00 in
Snow Depth Not available.
5:57 AM 8:09 PM
Waning Gibbous, 68% visible
METAR LTAI 250750Z 35008KT 310V030 CAVOK 36/09 Q1004 NOSIG RMK RWY18C 35008KT 300V020 RWY36R 34008KT 300V020 RWY18L 36007KT 300V060
Pressure 29.65 in
Visibility -9999.0 miles
Clouds
Dew Point 48 °F
Humidity 19%
Rainfall 0.00 in
Snow Depth Not available.
5:57 AM 8:09 PM
Waning Gibbous, 68% visible
METAR LTAI 250750Z 35008KT 310V030 CAVOK 36/09 Q1004 NOSIG RMK RWY18C 35008KT 300V020 RWY36R 34008KT 300V020 RWY18L 36007KT 300V060

10-Day Weather Forecast

×

Almanac

Astronomy

Jul. 25, 2016 Rise Set
Actual Time
Civil Twilight
Nautical Twilight
Astronomical Twilight
Moon
Length of Visible Light
Length of Day
Tomorrow will be .
, % of the Moon is Illuminated

Today's Extremes

Country Highs Country Lows

Community

WunderPhotos

Upload Photos

1,927,274 photos uploaded!

WunderBlog® & News

Nearby

Air Quality

  Air Quality AQ Index Pollutant
Not available.

Snow Depth

Station Depth Elevation

Earthquake Activity

City Distance Mag. Time & Date
Minimum magnitude displayed is 2.5.

Coastal Water Temperatures

Place Temperature

Stations

Nearby Weather Stations

Station Location Temp. Windchill Dew Point Humidity Wind Precip. Elev Updated Type